sensor_id;sensor_type;location;lat;lon;timestamp;P1;durP1;ratioP1;P2;durP2;ratioP2
25023;SDS011;13033;50.936;5.334;2023-02-04T00:01:34;33.35;;;9.32;;
25023;SDS011;13033;50.936;5.334;2023-02-04T00:04:00;31.50;;;9.10;;
25023;SDS011;13033;50.936;5.334;2023-02-04T00:06:26;24.33;;;9.40;;
25023;SDS011;13033;50.936;5.334;2023-02-04T00:08:51;26.40;;;9.10;;
25023;SDS011;13033;50.936;5.334;2023-02-04T00:11:17;18.33;;;6.90;;
25023;SDS011;13033;50.936;5.334;2023-02-04T00:13:43;22.98;;;9.15;;
25023;SDS011;13033;50.936;5.334;2023-02-04T00:16:08;26.42;;;8.90;;
25023;SDS011;13033;50.936;5.334;2023-02-04T00:18:34;24.70;;;7.65;;
25023;SDS011;13033;50.936;5.334;2023-02-04T00:21:00;25.42;;;9.13;;
25023;SDS011;13033;50.936;5.334;2023-02-04T00:23:25;25.42;;;8.98;;
25023;SDS011;13033;50.936;5.334;2023-02-04T00:25:51;26.77;;;10.07;;
25023;SDS011;13033;50.936;5.334;2023-02-04T00:28:17;22.40;;;8.65;;
25023;SDS011;13033;50.936;5.334;2023-02-04T00:30:43;23.55;;;9.23;;
25023;SDS011;13033;50.936;5.334;2023-02-04T00:33:09;26.33;;;9.15;;
25023;SDS011;13033;50.936;5.334;2023-02-04T00:35:34;24.88;;;9.32;;
25023;SDS011;13033;50.936;5.334;2023-02-04T00:38:01;26.15;;;10.02;;
25023;SDS011;13033;50.936;5.334;2023-02-04T00:40:28;22.02;;;9.27;;
25023;SDS011;13033;50.936;5.334;2023-02-04T00:42:53;21.13;;;8.27;;
25023;SDS011;13033;50.936;5.334;2023-02-04T00:45:19;22.30;;;7.43;;
25023;SDS011;13033;50.936;5.334;2023-02-04T00:47:45;16.52;;;6.85;;
25023;SDS011;13033;50.936;5.334;2023-02-04T00:50:10;19.38;;;7.18;;
25023;SDS011;13033;50.936;5.334;2023-02-04T00:52:36;22.77;;;7.63;;
25023;SDS011;13033;50.936;5.334;2023-02-04T00:55:02;16.15;;;6.80;;
25023;SDS011;13033;50.936;5.334;2023-02-04T00:57:28;14.65;;;6.65;;
25023;SDS011;13033;50.936;5.334;2023-02-04T00:59:54;17.55;;;6.28;;
25023;SDS011;13033;50.936;5.334;2023-02-04T01:02:20;15.27;;;6.18;;
25023;SDS011;13033;50.936;5.334;2023-02-04T01:04:45;13.15;;;6.32;;
25023;SDS011;13033;50.936;5.334;2023-02-04T01:07:11;18.52;;;6.60;;
25023;SDS011;13033;50.936;5.334;2023-02-04T01:09:37;15.25;;;6.45;;
25023;SDS011;13033;50.936;5.334;2023-02-04T01:12:02;15.88;;;6.65;;
25023;SDS011;13033;50.936;5.334;2023-02-04T01:14:28;13.60;;;5.82;;
25023;SDS011;13033;50.936;5.334;2023-02-04T01:16:54;10.43;;;4.57;;
25023;SDS011;13033;50.936;5.334;2023-02-04T01:19:20;12.85;;;5.18;;
25023;SDS011;13033;50.936;5.334;2023-02-04T01:21:46;12.68;;;4.40;;
25023;SDS011;13033;50.936;5.334;2023-02-04T01:24:11;12.00;;;4.15;;
25023;SDS011;13033;50.936;5.334;2023-02-04T01:26:37;9.55;;;3.85;;
25023;SDS011;13033;50.936;5.334;2023-02-04T01:29:03;12.50;;;4.43;;
25023;SDS011;13033;50.936;5.334;2023-02-04T01:31:28;13.93;;;4.18;;
25023;SDS011;13033;50.936;5.334;2023-02-04T01:33:55;12.05;;;3.92;;
25023;SDS011;13033;50.936;5.334;2023-02-04T01:36:21;14.18;;;3.80;;
25023;SDS011;13033;50.936;5.334;2023-02-04T01:38:49;12.32;;;3.25;;
25023;SDS011;13033;50.936;5.334;2023-02-04T01:41:15;13.13;;;2.83;;
25023;SDS011;13033;50.936;5.334;2023-02-04T01:43:42;20.15;;;3.65;;
25023;SDS011;13033;50.936;5.334;2023-02-04T01:46:08;12.60;;;3.50;;
25023;SDS011;13033;50.936;5.334;2023-02-04T01:48:34;13.02;;;2.95;;
25023;SDS011;13033;50.936;5.334;2023-02-04T01:51:09;12.15;;;3.03;;
25023;SDS011;13033;50.936;5.334;2023-02-04T01:53:38;12.50;;;3.60;;
25023;SDS011;13033;50.936;5.334;2023-02-04T01:56:23;13.15;;;3.17;;
25023;SDS011;13033;50.936;5.334;2023-02-04T01:58:51;14.45;;;3.75;;
25023;SDS011;13033;50.936;5.334;2023-02-04T02:04:06;12.85;;;3.78;;
25023;SDS011;13033;50.936;5.334;2023-02-04T02:06:33;12.20;;;4.00;;
25023;SDS011;13033;50.936;5.334;2023-02-04T02:09:00;11.88;;;4.10;;
25023;SDS011;13033;50.936;5.334;2023-02-04T02:11:27;20.40;;;4.90;;
25023;SDS011;13033;50.936;5.334;2023-02-04T02:13:53;14.77;;;4.97;;
25023;SDS011;13033;50.936;5.334;2023-02-04T02:16:19;12.20;;;5.50;;
25023;SDS011;13033;50.936;5.334;2023-02-04T02:18:45;18.98;;;5.40;;
25023;SDS011;13033;50.936;5.334;2023-02-04T02:21:11;13.25;;;5.15;;
25023;SDS011;13033;50.936;5.334;2023-02-04T02:23:45;9.75;;;5.18;;
25023;SDS011;13033;50.936;5.334;2023-02-04T02:26:16;14.60;;;5.45;;
25023;SDS011;13033;50.936;5.334;2023-02-04T02:28:43;22.98;;;6.20;;
25023;SDS011;13033;50.936;5.334;2023-02-04T02:31:11;19.75;;;5.32;;
25023;SDS011;13033;50.936;5.334;2023-02-04T02:33:38;20.77;;;5.78;;
25023;SDS011;13033;50.936;5.334;2023-02-04T02:36:04;21.20;;;6.20;;
25023;SDS011;13033;50.936;5.334;2023-02-04T02:38:30;21.67;;;6.38;;
25023;SDS011;13033;50.936;5.334;2023-02-04T02:40:56;20.70;;;6.70;;
25023;SDS011;13033;50.936;5.334;2023-02-04T02:43:23;20.50;;;7.53;;
25023;SDS011;13033;50.936;5.334;2023-02-04T02:45:51;23.27;;;7.68;;
25023;SDS011;13033;50.936;5.334;2023-02-04T02:48:18;23.02;;;7.25;;
25023;SDS011;13033;50.936;5.334;2023-02-04T02:50:44;23.30;;;7.80;;
25023;SDS011;13033;50.936;5.334;2023-02-04T02:53:11;22.33;;;7.90;;
25023;SDS011;13033;50.936;5.334;2023-02-04T02:55:39;26.63;;;9.13;;
25023;SDS011;13033;50.936;5.334;2023-02-04T02:58:08;24.85;;;8.75;;
25023;SDS011;13033;50.936;5.334;2023-02-04T03:00:39;29.95;;;8.80;;
25023;SDS011;13033;50.936;5.334;2023-02-04T03:03:06;22.25;;;8.45;;
25023;SDS011;13033;50.936;5.334;2023-02-04T03:05:38;20.95;;;8.48;;
25023;SDS011;13033;50.936;5.334;2023-02-04T03:08:07;23.83;;;8.52;;
25023;SDS011;13033;50.936;5.334;2023-02-04T03:10:34;24.67;;;8.95;;
25023;SDS011;13033;50.936;5.334;2023-02-04T03:13:00;22.15;;;8.63;;
25023;SDS011;13033;50.936;5.334;2023-02-04T03:15:27;23.77;;;9.02;;
25023;SDS011;13033;50.936;5.334;2023-02-04T03:17:52;21.42;;;8.02;;
25023;SDS011;13033;50.936;5.334;2023-02-04T03:20:20;23.20;;;8.43;;
25023;SDS011;13033;50.936;5.334;2023-02-04T03:22:51;22.83;;;8.60;;
25023;SDS011;13033;50.936;5.334;2023-02-04T03:25:18;19.08;;;8.00;;
25023;SDS011;13033;50.936;5.334;2023-02-04T03:27:44;18.77;;;8.10;;
25023;SDS011;13033;50.936;5.334;2023-02-04T03:30:11;21.98;;;8.40;;
25023;SDS011;13033;50.936;5.334;2023-02-04T03:32:36;25.90;;;9.50;;
25023;SDS011;13033;50.936;5.334;2023-02-04T03:35:02;25.20;;;9.40;;
25023;SDS011;13033;50.936;5.334;2023-02-04T03:37:28;23.25;;;9.13;;
25023;SDS011;13033;50.936;5.334;2023-02-04T03:39:54;26.25;;;9.65;;
25023;SDS011;13033;50.936;5.334;2023-02-04T03:42:19;24.35;;;9.43;;
25023;SDS011;13033;50.936;5.334;2023-02-04T03:44:45;34.22;;;9.25;;
25023;SDS011;13033;50.936;5.334;2023-02-04T03:47:11;21.23;;;8.70;;
25023;SDS011;13033;50.936;5.334;2023-02-04T03:49:36;23.63;;;9.13;;
25023;SDS011;13033;50.936;5.334;2023-02-04T03:52:03;20.77;;;8.25;;
25023;SDS011;13033;50.936;5.334;2023-02-04T03:54:29;20.17;;;9.27;;
25023;SDS011;13033;50.936;5.334;2023-02-04T03:56:55;23.95;;;10.07;;
25023;SDS011;13033;50.936;5.334;2023-02-04T03:59:20;28.50;;;9.55;;
25023;SDS011;13033;50.936;5.334;2023-02-04T04:01:46;23.52;;;10.02;;
25023;SDS011;13033;50.936;5.334;2023-02-04T04:04:11;24.08;;;10.38;;
25023;SDS011;13033;50.936;5.334;2023-02-04T04:06:37;30.23;;;10.18;;
25023;SDS011;13033;50.936;5.334;2023-02-04T04:09:03;23.13;;;9.55;;
25023;SDS011;13033;50.936;5.334;2023-02-04T04:11:29;24.45;;;9.95;;
25023;SDS011;13033;50.936;5.334;2023-02-04T04:13:55;24.13;;;10.48;;
25023;SDS011;13033;50.936;5.334;2023-02-04T04:16:20;24.50;;;9.65;;
25023;SDS011;13033;50.936;5.334;2023-02-04T04:18:46;24.13;;;9.63;;
25023;SDS011;13033;50.936;5.334;2023-02-04T04:21:12;27.67;;;10.10;;
25023;SDS011;13033;50.936;5.334;2023-02-04T04:23:37;26.85;;;10.15;;
25023;SDS011;13033;50.936;5.334;2023-02-04T04:26:03;20.88;;;9.70;;
25023;SDS011;13033;50.936;5.334;2023-02-04T04:28:29;24.40;;;10.10;;
25023;SDS011;13033;50.936;5.334;2023-02-04T04:30:55;26.13;;;10.15;;
25023;SDS011;13033;50.936;5.334;2023-02-04T04:33:20;32.38;;;11.07;;
25023;SDS011;13033;50.936;5.334;2023-02-04T04:35:46;32.75;;;10.88;;
25023;SDS011;13033;50.936;5.334;2023-02-04T04:38:12;25.33;;;10.73;;
25023;SDS011;13033;50.936;5.334;2023-02-04T04:40:37;25.83;;;10.93;;
25023;SDS011;13033;50.936;5.334;2023-02-04T04:43:03;29.20;;;10.68;;
25023;SDS011;13033;50.936;5.334;2023-02-04T04:45:29;24.50;;;10.20;;
25023;SDS011;13033;50.936;5.334;2023-02-04T04:47:54;26.30;;;9.73;;
25023;SDS011;13033;50.936;5.334;2023-02-04T04:50:20;27.88;;;10.63;;
25023;SDS011;13033;50.936;5.334;2023-02-04T04:52:46;27.15;;;10.68;;
25023;SDS011;13033;50.936;5.334;2023-02-04T04:55:11;27.52;;;10.93;;
25023;SDS011;13033;50.936;5.334;2023-02-04T04:57:37;26.77;;;11.40;;
25023;SDS011;13033;50.936;5.334;2023-02-04T05:00:03;28.38;;;11.43;;
25023;SDS011;13033;50.936;5.334;2023-02-04T05:02:30;27.48;;;10.73;;
25023;SDS011;13033;50.936;5.334;2023-02-04T05:04:56;19.00;;;10.60;;
25023;SDS011;13033;50.936;5.334;2023-02-04T05:07:22;27.48;;;10.98;;
25023;SDS011;13033;50.936;5.334;2023-02-04T05:09:47;26.17;;;11.07;;
25023;SDS011;13033;50.936;5.334;2023-02-04T05:12:13;28.73;;;11.15;;
25023;SDS011;13033;50.936;5.334;2023-02-04T05:14:39;35.80;;;12.52;;
25023;SDS011;13033;50.936;5.334;2023-02-04T05:17:04;26.42;;;10.88;;
25023;SDS011;13033;50.936;5.334;2023-02-04T05:19:36;25.38;;;11.05;;
25023;SDS011;13033;50.936;5.334;2023-02-04T05:22:02;23.35;;;11.82;;
25023;SDS011;13033;50.936;5.334;2023-02-04T05:24:27;28.05;;;11.63;;
25023;SDS011;13033;50.936;5.334;2023-02-04T05:26:53;27.90;;;11.30;;
25023;SDS011;13033;50.936;5.334;2023-02-04T05:29:19;25.83;;;11.60;;
25023;SDS011;13033;50.936;5.334;2023-02-04T05:31:44;33.25;;;12.20;;
25023;SDS011;13033;50.936;5.334;2023-02-04T05:34:10;28.15;;;11.80;;
25023;SDS011;13033;50.936;5.334;2023-02-04T05:36:36;29.38;;;12.30;;
25023;SDS011;13033;50.936;5.334;2023-02-04T05:39:01;31.88;;;12.23;;
25023;SDS011;13033;50.936;5.334;2023-02-04T05:41:27;26.67;;;11.95;;
25023;SDS011;13033;50.936;5.334;2023-02-04T05:43:53;26.60;;;11.85;;
25023;SDS011;13033;50.936;5.334;2023-02-04T05:46:19;28.70;;;12.85;;
25023;SDS011;13033;50.936;5.334;2023-02-04T05:48:44;27.13;;;12.15;;
25023;SDS011;13033;50.936;5.334;2023-02-04T05:51:10;33.13;;;13.43;;
25023;SDS011;13033;50.936;5.334;2023-02-04T05:53:36;30.83;;;13.40;;
25023;SDS011;13033;50.936;5.334;2023-02-04T05:56:01;29.65;;;12.40;;
25023;SDS011;13033;50.936;5.334;2023-02-04T05:58:27;31.30;;;13.77;;
25023;SDS011;13033;50.936;5.334;2023-02-04T06:00:57;36.90;;;14.38;;
25023;SDS011;13033;50.936;5.334;2023-02-04T06:03:25;34.97;;;13.85;;
25023;SDS011;13033;50.936;5.334;2023-02-04T06:05:51;34.63;;;13.88;;
25023;SDS011;13033;50.936;5.334;2023-02-04T06:08:16;27.75;;;12.27;;
25023;SDS011;13033;50.936;5.334;2023-02-04T06:10:42;29.40;;;13.65;;
25023;SDS011;13033;50.936;5.334;2023-02-04T06:13:08;27.65;;;12.25;;
25023;SDS011;13033;50.936;5.334;2023-02-04T06:15:34;30.80;;;13.23;;
25023;SDS011;13033;50.936;5.334;2023-02-04T06:17:59;30.05;;;13.63;;
25023;SDS011;13033;50.936;5.334;2023-02-04T06:20:25;33.55;;;13.82;;
25023;SDS011;13033;50.936;5.334;2023-02-04T06:22:51;31.15;;;12.90;;
25023;SDS011;13033;50.936;5.334;2023-02-04T06:25:18;31.45;;;12.85;;
25023;SDS011;13033;50.936;5.334;2023-02-04T06:27:44;35.10;;;13.30;;
25023;SDS011;13033;50.936;5.334;2023-02-04T06:30:10;35.17;;;14.05;;
25023;SDS011;13033;50.936;5.334;2023-02-04T06:32:36;34.50;;;14.25;;
25023;SDS011;13033;50.936;5.334;2023-02-04T06:35:01;32.03;;;13.63;;
25023;SDS011;13033;50.936;5.334;2023-02-04T06:37:27;31.63;;;13.45;;
25023;SDS011;13033;50.936;5.334;2023-02-04T06:39:53;32.85;;;14.45;;
25023;SDS011;13033;50.936;5.334;2023-02-04T06:42:19;30.23;;;13.02;;
25023;SDS011;13033;50.936;5.334;2023-02-04T06:44:45;32.58;;;13.65;;
25023;SDS011;13033;50.936;5.334;2023-02-04T06:47:11;28.58;;;13.25;;
25023;SDS011;13033;50.936;5.334;2023-02-04T06:49:36;30.30;;;13.32;;
25023;SDS011;13033;50.936;5.334;2023-02-04T06:52:02;28.13;;;12.70;;
25023;SDS011;13033;50.936;5.334;2023-02-04T06:54:28;29.90;;;12.55;;
25023;SDS011;13033;50.936;5.334;2023-02-04T06:56:53;26.52;;;13.15;;
25023;SDS011;13033;50.936;5.334;2023-02-04T06:59:19;30.00;;;13.65;;
25023;SDS011;13033;50.936;5.334;2023-02-04T07:01:45;28.52;;;13.60;;
25023;SDS011;13033;50.936;5.334;2023-02-04T07:04:10;31.40;;;13.82;;
25023;SDS011;13033;50.936;5.334;2023-02-04T07:06:36;35.97;;;16.23;;
25023;SDS011;13033;50.936;5.334;2023-02-04T07:09:02;36.08;;;15.63;;
25023;SDS011;13033;50.936;5.334;2023-02-04T07:11:27;34.33;;;15.13;;
25023;SDS011;13033;50.936;5.334;2023-02-04T07:13:53;35.85;;;15.00;;
25023;SDS011;13033;50.936;5.334;2023-02-04T07:16:19;32.35;;;15.48;;
25023;SDS011;13033;50.936;5.334;2023-02-04T07:18:45;32.22;;;15.35;;
25023;SDS011;13033;50.936;5.334;2023-02-04T07:21:10;36.35;;;16.08;;
25023;SDS011;13033;50.936;5.334;2023-02-04T07:23:36;32.33;;;14.82;;
25023;SDS011;13033;50.936;5.334;2023-02-04T07:26:02;34.03;;;14.68;;
25023;SDS011;13033;50.936;5.334;2023-02-04T07:28:27;32.85;;;14.40;;
25023;SDS011;13033;50.936;5.334;2023-02-04T07:30:53;32.47;;;15.38;;
25023;SDS011;13033;50.936;5.334;2023-02-04T07:33:19;30.17;;;14.85;;
25023;SDS011;13033;50.936;5.334;2023-02-04T07:35:44;35.88;;;15.27;;
25023;SDS011;13033;50.936;5.334;2023-02-04T07:38:10;34.83;;;14.38;;
25023;SDS011;13033;50.936;5.334;2023-02-04T07:40:35;27.75;;;14.20;;
25023;SDS011;13033;50.936;5.334;2023-02-04T07:43:03;29.90;;;14.80;;
25023;SDS011;13033;50.936;5.334;2023-02-04T07:45:28;31.45;;;14.73;;
25023;SDS011;13033;50.936;5.334;2023-02-04T07:47:54;31.92;;;14.77;;
25023;SDS011;13033;50.936;5.334;2023-02-04T07:50:20;34.22;;;15.25;;
25023;SDS011;13033;50.936;5.334;2023-02-04T07:52:45;32.53;;;15.27;;
25023;SDS011;13033;50.936;5.334;2023-02-04T07:55:11;32.92;;;14.23;;
25023;SDS011;13033;50.936;5.334;2023-02-04T07:57:37;32.17;;;14.77;;
25023;SDS011;13033;50.936;5.334;2023-02-04T08:00:03;34.03;;;14.73;;
25023;SDS011;13033;50.936;5.334;2023-02-04T08:02:29;37.42;;;15.38;;
25023;SDS011;13033;50.936;5.334;2023-02-04T08:04:55;40.63;;;15.88;;
25023;SDS011;13033;50.936;5.334;2023-02-04T08:07:20;34.53;;;15.77;;
25023;SDS011;13033;50.936;5.334;2023-02-04T08:09:46;34.00;;;16.08;;
25023;SDS011;13033;50.936;5.334;2023-02-04T08:12:12;32.08;;;15.23;;
25023;SDS011;13033;50.936;5.334;2023-02-04T08:14:37;36.83;;;15.80;;
25023;SDS011;13033;50.936;5.334;2023-02-04T08:17:03;34.78;;;15.40;;
25023;SDS011;13033;50.936;5.334;2023-02-04T08:19:29;33.45;;;15.05;;
25023;SDS011;13033;50.936;5.334;2023-02-04T08:21:54;35.88;;;15.73;;
25023;SDS011;13033;50.936;5.334;2023-02-04T08:24:20;38.58;;;14.88;;
25023;SDS011;13033;50.936;5.334;2023-02-04T08:26:45;33.10;;;14.95;;
25023;SDS011;13033;50.936;5.334;2023-02-04T08:29:11;34.17;;;14.70;;
25023;SDS011;13033;50.936;5.334;2023-02-04T08:31:37;33.65;;;14.75;;
25023;SDS011;13033;50.936;5.334;2023-02-04T08:34:03;34.22;;;14.60;;
25023;SDS011;13033;50.936;5.334;2023-02-04T08:36:30;35.13;;;14.55;;
25023;SDS011;13033;50.936;5.334;2023-02-04T08:38:56;35.55;;;15.73;;
25023;SDS011;13033;50.936;5.334;2023-02-04T08:41:21;31.17;;;14.20;;
25023;SDS011;13033;50.936;5.334;2023-02-04T08:43:47;27.05;;;13.82;;
25023;SDS011;13033;50.936;5.334;2023-02-04T08:46:13;31.55;;;13.95;;
25023;SDS011;13033;50.936;5.334;2023-02-04T08:48:39;34.83;;;14.65;;
25023;SDS011;13033;50.936;5.334;2023-02-04T08:51:04;32.10;;;14.27;;
25023;SDS011;13033;50.936;5.334;2023-02-04T08:53:30;32.72;;;13.40;;
25023;SDS011;13033;50.936;5.334;2023-02-04T08:55:56;37.53;;;14.10;;
25023;SDS011;13033;50.936;5.334;2023-02-04T08:58:21;32.20;;;13.82;;
25023;SDS011;13033;50.936;5.334;2023-02-04T09:00:47;32.08;;;13.07;;
25023;SDS011;13033;50.936;5.334;2023-02-04T09:03:13;32.45;;;13.73;;
25023;SDS011;13033;50.936;5.334;2023-02-04T09:05:39;35.05;;;13.98;;
25023;SDS011;13033;50.936;5.334;2023-02-04T09:08:04;31.77;;;14.23;;
25023;SDS011;13033;50.936;5.334;2023-02-04T09:10:30;38.70;;;14.38;;
25023;SDS011;13033;50.936;5.334;2023-02-04T09:12:56;31.35;;;13.25;;
25023;SDS011;13033;50.936;5.334;2023-02-04T09:15:22;34.25;;;14.07;;
25023;SDS011;13033;50.936;5.334;2023-02-04T09:17:48;33.25;;;13.45;;
25023;SDS011;13033;50.936;5.334;2023-02-04T09:20:15;29.83;;;14.43;;
25023;SDS011;13033;50.936;5.334;2023-02-04T09:22:40;35.17;;;14.57;;
25023;SDS011;13033;50.936;5.334;2023-02-04T09:25:06;35.38;;;14.05;;
25023;SDS011;13033;50.936;5.334;2023-02-04T09:27:32;35.53;;;15.15;;
25023;SDS011;13033;50.936;5.334;2023-02-04T09:29:58;40.50;;;16.52;;
25023;SDS011;13033;50.936;5.334;2023-02-04T09:32:24;36.47;;;16.38;;
25023;SDS011;13033;50.936;5.334;2023-02-04T09:34:49;31.75;;;15.02;;
25023;SDS011;13033;50.936;5.334;2023-02-04T09:37:15;37.50;;;16.55;;
25023;SDS011;13033;50.936;5.334;2023-02-04T09:39:41;39.90;;;16.85;;
25023;SDS011;13033;50.936;5.334;2023-02-04T09:42:08;46.45;;;18.55;;
25023;SDS011;13033;50.936;5.334;2023-02-04T09:44:37;41.28;;;17.08;;
25023;SDS011;13033;50.936;5.334;2023-02-04T09:47:03;38.33;;;17.70;;
25023;SDS011;13033;50.936;5.334;2023-02-04T09:49:29;35.58;;;16.77;;
25023;SDS011;13033;50.936;5.334;2023-02-04T09:51:56;39.78;;;18.58;;
25023;SDS011;13033;50.936;5.334;2023-02-04T09:54:23;48.97;;;18.90;;
25023;SDS011;13033;50.936;5.334;2023-02-04T09:56:49;41.38;;;18.35;;
25023;SDS011;13033;50.936;5.334;2023-02-04T09:59:17;52.60;;;19.73;;
25023;SDS011;13033;50.936;5.334;2023-02-04T10:02:01;46.58;;;19.80;;
25023;SDS011;13033;50.936;5.334;2023-02-04T10:04:29;46.30;;;18.67;;
25023;SDS011;13033;50.936;5.334;2023-02-04T10:06:55;47.28;;;18.65;;
25023;SDS011;13033;50.936;5.334;2023-02-04T10:09:24;45.83;;;19.98;;
25023;SDS011;13033;50.936;5.334;2023-02-04T10:11:50;43.63;;;19.13;;
25023;SDS011;13033;50.936;5.334;2023-02-04T10:14:20;51.25;;;20.73;;
25023;SDS011;13033;50.936;5.334;2023-02-04T10:16:49;54.03;;;20.30;;
25023;SDS011;13033;50.936;5.334;2023-02-04T10:19:21;41.92;;;18.85;;
25023;SDS011;13033;50.936;5.334;2023-02-04T10:21:47;44.25;;;20.13;;
25023;SDS011;13033;50.936;5.334;2023-02-04T10:24:15;44.38;;;17.92;;
25023;SDS011;13033;50.936;5.334;2023-02-04T10:26:43;40.40;;;17.75;;
25023;SDS011;13033;50.936;5.334;2023-02-04T10:29:17;39.63;;;18.05;;
25023;SDS011;13033;50.936;5.334;2023-02-04T10:31:49;46.60;;;18.23;;
25023;SDS011;13033;50.936;5.334;2023-02-04T10:34:19;48.00;;;18.98;;
25023;SDS011;13033;50.936;5.334;2023-02-04T10:36:48;43.78;;;18.83;;
25023;SDS011;13033;50.936;5.334;2023-02-04T10:41:49;46.05;;;19.13;;
25023;SDS011;13033;50.936;5.334;2023-02-04T10:44:25;44.65;;;19.83;;
25023;SDS011;13033;50.936;5.334;2023-02-04T10:47:26;47.22;;;20.20;;
25023;SDS011;13033;50.936;5.334;2023-02-04T10:52:33;46.30;;;20.65;;
25023;SDS011;13033;50.936;5.334;2023-02-04T10:55:04;43.10;;;21.10;;
25023;SDS011;13033;50.936;5.334;2023-02-04T10:57:37;48.40;;;20.58;;
25023;SDS011;13033;50.936;5.334;2023-02-04T11:00:05;48.72;;;21.75;;
25023;SDS011;13033;50.936;5.334;2023-02-04T11:02:40;46.67;;;20.25;;
25023;SDS011;13033;50.936;5.334;2023-02-04T11:05:34;42.00;;;20.15;;
25023;SDS011;13033;50.936;5.334;2023-02-04T11:08:16;45.75;;;19.75;;
25023;SDS011;13033;50.936;5.334;2023-02-04T11:10:57;42.92;;;20.42;;
25023;SDS011;13033;50.936;5.334;2023-02-04T11:13:44;50.15;;;21.05;;
25023;SDS011;13033;50.936;5.334;2023-02-04T11:21:26;39.25;;;18.77;;
25023;SDS011;13033;50.936;5.334;2023-02-04T11:39:26;42.38;;;17.55;;
25023;SDS011;13033;50.936;5.334;2023-02-04T11:41:57;35.97;;;17.10;;
25023;SDS011;13033;50.936;5.334;2023-02-04T11:44:24;41.25;;;17.70;;
25023;SDS011;13033;50.936;5.334;2023-02-04T11:46:51;37.03;;;15.73;;
25023;SDS011;13033;50.936;5.334;2023-02-04T11:49:19;38.60;;;16.77;;
25023;SDS011;13033;50.936;5.334;2023-02-04T11:51:47;39.33;;;17.02;;
25023;SDS011;13033;50.936;5.334;2023-02-04T11:54:14;38.50;;;17.23;;
25023;SDS011;13033;50.936;5.334;2023-02-04T11:56:43;34.63;;;16.83;;
25023;SDS011;13033;50.936;5.334;2023-02-04T11:59:10;41.30;;;17.33;;
25023;SDS011;13033;50.936;5.334;2023-02-04T12:01:37;40.50;;;18.75;;
25023;SDS011;13033;50.936;5.334;2023-02-04T12:04:04;45.72;;;19.27;;
25023;SDS011;13033;50.936;5.334;2023-02-04T12:06:33;48.10;;;18.48;;
25023;SDS011;13033;50.936;5.334;2023-02-04T12:11:50;44.83;;;18.98;;
25023;SDS011;13033;50.936;5.334;2023-02-04T12:14:16;43.17;;;19.20;;
25023;SDS011;13033;50.936;5.334;2023-02-04T12:16:46;36.10;;;16.30;;
25023;SDS011;13033;50.936;5.334;2023-02-04T12:19:15;37.47;;;17.10;;
25023;SDS011;13033;50.936;5.334;2023-02-04T12:21:41;30.85;;;14.55;;
25023;SDS011;13033;50.936;5.334;2023-02-04T12:24:07;34.20;;;15.65;;
25023;SDS011;13033;50.936;5.334;2023-02-04T12:26:33;42.50;;;17.00;;
25023;SDS011;13033;50.936;5.334;2023-02-04T12:28:58;39.65;;;16.52;;
25023;SDS011;13033;50.936;5.334;2023-02-04T12:31:27;39.80;;;15.88;;
25023;SDS011;13033;50.936;5.334;2023-02-04T12:33:54;37.88;;;16.85;;
25023;SDS011;13033;50.936;5.334;2023-02-04T12:36:20;36.15;;;17.05;;
25023;SDS011;13033;50.936;5.334;2023-02-04T12:38:46;43.90;;;17.63;;
25023;SDS011;13033;50.936;5.334;2023-02-04T12:41:11;43.67;;;16.95;;
25023;SDS011;13033;50.936;5.334;2023-02-04T12:43:37;34.20;;;15.02;;
25023;SDS011;13033;50.936;5.334;2023-02-04T12:46:03;38.65;;;16.58;;
25023;SDS011;13033;50.936;5.334;2023-02-04T12:48:29;26.15;;;10.82;;
25023;SDS011;13033;50.936;5.334;2023-02-04T12:50:54;30.05;;;12.32;;
25023;SDS011;13033;50.936;5.334;2023-02-04T12:53:20;29.80;;;11.55;;
25023;SDS011;13033;50.936;5.334;2023-02-04T12:55:46;28.38;;;12.23;;
25023;SDS011;13033;50.936;5.334;2023-02-04T12:58:12;28.05;;;10.38;;
25023;SDS011;13033;50.936;5.334;2023-02-04T13:00:37;27.25;;;9.68;;
25023;SDS011;13033;50.936;5.334;2023-02-04T13:03:03;22.95;;;9.90;;
25023;SDS011;13033;50.936;5.334;2023-02-04T13:05:29;29.80;;;11.85;;
25023;SDS011;13033;50.936;5.334;2023-02-04T13:07:55;24.25;;;11.45;;
25023;SDS011;13033;50.936;5.334;2023-02-04T13:10:21;31.55;;;12.57;;
25023;SDS011;13033;50.936;5.334;2023-02-04T13:12:49;30.25;;;12.93;;
25023;SDS011;13033;50.936;5.334;2023-02-04T13:15:15;30.98;;;13.82;;
25023;SDS011;13033;50.936;5.334;2023-02-04T13:17:41;32.50;;;13.50;;
25023;SDS011;13033;50.936;5.334;2023-02-04T13:20:07;31.33;;;14.20;;
25023;SDS011;13033;50.936;5.334;2023-02-04T13:22:33;30.30;;;14.10;;
25023;SDS011;13033;50.936;5.334;2023-02-04T13:24:59;25.38;;;13.60;;
25023;SDS011;13033;50.936;5.334;2023-02-04T13:27:25;30.13;;;11.77;;
25023;SDS011;13033;50.936;5.334;2023-02-04T13:29:52;27.48;;;12.65;;
25023;SDS011;13033;50.936;5.334;2023-02-04T13:32:17;33.90;;;13.57;;
25023;SDS011;13033;50.936;5.334;2023-02-04T13:34:43;34.13;;;14.13;;
25023;SDS011;13033;50.936;5.334;2023-02-04T13:37:09;28.73;;;13.57;;
25023;SDS011;13033;50.936;5.334;2023-02-04T13:39:35;26.42;;;11.55;;
25023;SDS011;13033;50.936;5.334;2023-02-04T13:42:00;32.78;;;14.02;;
25023;SDS011;13033;50.936;5.334;2023-02-04T13:44:26;30.95;;;13.45;;
25023;SDS011;13033;50.936;5.334;2023-02-04T13:46:52;31.65;;;13.35;;
25023;SDS011;13033;50.936;5.334;2023-02-04T13:49:17;32.28;;;14.80;;
25023;SDS011;13033;50.936;5.334;2023-02-04T13:51:43;37.95;;;14.45;;
25023;SDS011;13033;50.936;5.334;2023-02-04T13:54:09;30.73;;;14.05;;
25023;SDS011;13033;50.936;5.334;2023-02-04T13:56:34;37.33;;;15.07;;
25023;SDS011;13033;50.936;5.334;2023-02-04T13:59:01;39.28;;;14.85;;
25023;SDS011;13033;50.936;5.334;2023-02-04T14:01:27;35.10;;;16.98;;
25023;SDS011;13033;50.936;5.334;2023-02-04T14:03:53;39.58;;;16.33;;
25023;SDS011;13033;50.936;5.334;2023-02-04T14:06:19;39.20;;;17.02;;
25023;SDS011;13033;50.936;5.334;2023-02-04T14:08:46;34.97;;;16.73;;
25023;SDS011;13033;50.936;5.334;2023-02-04T14:11:12;36.72;;;17.13;;
25023;SDS011;13033;50.936;5.334;2023-02-04T14:13:38;40.85;;;17.67;;
25023;SDS011;13033;50.936;5.334;2023-02-04T14:16:04;36.33;;;17.67;;
25023;SDS011;13033;50.936;5.334;2023-02-04T14:18:30;34.10;;;15.40;;
25023;SDS011;13033;50.936;5.334;2023-02-04T14:20:55;31.77;;;15.32;;
25023;SDS011;13033;50.936;5.334;2023-02-04T14:23:21;31.27;;;13.85;;
25023;SDS011;13033;50.936;5.334;2023-02-04T14:25:47;37.65;;;15.43;;
25023;SDS011;13033;50.936;5.334;2023-02-04T14:28:13;33.15;;;14.95;;
25023;SDS011;13033;50.936;5.334;2023-02-04T14:30:39;33.05;;;15.63;;
25023;SDS011;13033;50.936;5.334;2023-02-04T14:33:04;36.25;;;15.48;;
25023;SDS011;13033;50.936;5.334;2023-02-04T14:35:32;35.20;;;15.80;;
25023;SDS011;13033;50.936;5.334;2023-02-04T14:37:58;34.95;;;15.57;;
25023;SDS011;13033;50.936;5.334;2023-02-04T14:40:24;35.80;;;16.27;;
25023;SDS011;13033;50.936;5.334;2023-02-04T14:42:49;31.35;;;14.25;;
25023;SDS011;13033;50.936;5.334;2023-02-04T14:45:15;35.58;;;15.57;;
25023;SDS011;13033;50.936;5.334;2023-02-04T14:47:41;35.90;;;15.90;;
25023;SDS011;13033;50.936;5.334;2023-02-04T14:50:09;35.80;;;15.77;;
25023;SDS011;13033;50.936;5.334;2023-02-04T14:52:37;45.78;;;18.73;;
25023;SDS011;13033;50.936;5.334;2023-02-04T14:55:03;39.28;;;18.60;;